Time;durP1;ratioP1;P1;durP2;ratioP2;P2;SDS_P1;SDS_P2;PMS_P1;PMS_P2;Temp;Humidity;BMP_temperature;BMP_pressure;BME280_temperature;BME280_humidity;BME280_pressure;Samples;Min_cycle;Max_cycle;Signal;HPM_P1;HPM_P2
2022/04/17 00:02:06;;;;;;;59.72;28.75;;;8.60;99.90;;;;;;5088767;28;20459;-70
2022/04/17 00:04:31;;;;;;;56.13;26.23;;;8.60;99.90;;;;;;5088940;28;20024;-71
2022/04/17 00:06:58;;;;;;;63.10;28.17;;;8.50;99.90;;;;;;5088990;28;20036;-71
2022/04/17 00:09:23;;;;;;;52.03;25.75;;;8.50;99.90;;;;;;5088751;28;20031;-71
2022/04/17 00:11:49;;;;;;;52.72;25.25;;;8.50;99.90;;;;;;5086312;28;21006;-72
2022/04/17 00:14:15;;;;;;;49.97;25.50;;;8.50;99.90;;;;;;5069380;28;20083;-70
2022/04/17 00:16:41;;;;;;;53.63;26.23;;;8.40;99.90;;;;;;5066989;28;20052;-71
2022/04/17 00:19:09;;;;;;;55.63;26.17;;;8.30;99.90;;;;;;5068255;28;20076;-70
2022/04/17 00:21:35;;;;;;;55.08;27.35;;;8.30;99.90;;;;;;5087939;28;20016;-70
2022/04/17 00:24:01;;;;;;;57.03;26.85;;;8.30;99.90;;;;;;5088724;28;20137;-70
2022/04/17 00:26:27;;;;;;;55.15;26.17;;;8.20;99.90;;;;;;5088544;28;20408;-73
2022/04/17 00:28:52;;;;;;;57.25;27.02;;;8.20;99.90;;;;;;5088823;28;20040;-70
2022/04/17 00:31:18;;;;;;;53.63;26.80;;;8.20;99.90;;;;;;5071040;28;20035;-70
2022/04/17 00:33:44;;;;;;;65.97;27.77;;;8.10;99.90;;;;;;5068426;28;20035;-71
2022/04/17 00:36:09;;;;;;;58.33;27.70;;;8.10;99.90;;;;;;5068029;28;20491;-70
2022/04/17 00:38:35;;;;;;;55.15;26.27;;;8.00;99.90;;;;;;5068148;28;20026;-71
2022/04/17 00:41:01;;;;;;;60.17;27.60;;;8.00;99.90;;;;;;5082976;28;20028;-70
2022/04/17 00:43:30;;;;;;;66.82;28.67;;;8.00;99.90;;;;;;5086934;28;20028;-71
2022/04/17 00:45:56;;;;;;;60.00;27.70;;;8.00;99.90;;;;;;5074876;28;20033;-71
2022/04/17 00:48:23;;;;;;;61.30;27.05;;;7.90;99.90;;;;;;5068405;28;20492;-71
2022/04/17 00:50:55;;;;;;;65.97;29.02;;;7.90;99.90;;;;;;5081547;28;20618;-70
2022/04/17 00:53:24;;;;;;;;;;;7.80;99.90;;;;;;5089251;28;20103;-71
2022/04/17 00:55:50;;;;;;;56.65;25.98;;;7.80;99.90;;;;;;5088148;28;19999;-71
2022/04/17 00:58:17;;;;;;;62.22;26.17;;;7.80;99.90;;;;;;5088296;28;20035;-71
2022/04/17 01:00:43;;;;;;;57.30;25.30;;;7.70;99.90;;;;;;5076923;28;20035;-71
2022/04/17 01:03:12;;;;;;;54.38;25.92;;;7.70;99.90;;;;;;5067731;28;20096;-69
2022/04/17 01:05:43;;;;;;;60.35;27.38;;;7.60;99.90;;;;;;5067442;28;20033;-69
2022/04/17 01:08:11;;;;;;;56.03;25.63;;;7.60;99.90;;;;;;5065965;28;20492;-71
2022/04/17 01:10:37;;;;;;;54.10;24.88;;;7.50;99.90;;;;;;5077459;28;20082;-69
2022/04/17 01:13:04;;;;;;;53.05;26.30;;;7.50;99.90;;;;;;5086475;28;20035;-70
2022/04/17 01:15:31;;;;;;;60.08;26.15;;;7.40;99.90;;;;;;5080128;28;20024;-70
2022/04/17 01:17:56;;;;;;;66.03;27.95;;;7.40;99.90;;;;;;5067438;28;20090;-71
2022/04/17 01:20:23;;;;;;;59.63;26.15;;;7.30;99.90;;;;;;5076464;28;20047;-70
2022/04/17 01:22:50;;;;;;;58.97;26.23;;;7.30;99.90;;;;;;5088120;28;20028;-70
2022/04/17 01:28:05;;;;;;;59.00;25.98;;;7.30;99.90;;;;;;5087536;28;20043;-70
2022/04/17 01:30:31;;;;;;;60.10;25.65;;;7.30;99.90;;;;;;5080911;28;20052;-70
2022/04/17 01:32:56;;;;;;;56.47;26.80;;;7.30;99.90;;;;;;5073971;28;20066;-70
2022/04/17 01:35:22;;;;;;;48.90;24.83;;;7.30;99.90;;;;;;5072879;28;20017;-70
2022/04/17 01:37:49;;;;;;;53.88;25.58;;;7.30;99.90;;;;;;5074336;28;20036;-70
2022/04/17 01:40:15;;;;;;;55.25;24.75;;;7.30;99.90;;;;;;5081789;28;20031;-71
2022/04/17 01:42:41;;;;;;;51.65;22.58;;;7.30;99.90;;;;;;5094376;28;20028;-71
2022/04/17 01:45:09;;;;;;;46.58;22.55;;;7.30;99.90;;;;;;5091761;28;20039;-70
2022/04/17 01:47:35;;;;;;;51.97;23.42;;;7.30;99.90;;;;;;5073809;28;20091;-70
2022/04/17 01:50:00;;;;;;;47.10;23.52;;;7.50;99.90;;;;;;5078070;28;20081;-70
2022/04/17 01:52:27;;;;;;;44.70;22.20;;;7.60;99.90;;;;;;5094171;28;20024;-70
2022/04/17 01:54:53;;;;;;;47.38;22.30;;;7.60;99.90;;;;;;5093899;28;20056;-69
2022/04/17 01:57:18;;;;;;;45.20;21.48;;;7.50;99.90;;;;;;5094164;28;20054;-70
2022/04/17 01:59:44;;;;;;;49.83;23.08;;;7.50;99.90;;;;;;5094191;28;20028;-69
2022/04/17 02:02:10;;;;;;;48.83;22.50;;;7.40;99.90;;;;;;5088992;28;20024;-71
2022/04/17 02:04:36;;;;;;;46.15;22.00;;;7.50;99.90;;;;;;5073672;28;20024;-71
2022/04/17 02:07:04;;;;;;;44.60;22.77;;;7.40;99.90;;;;;;5073707;28;20029;-71
2022/04/17 02:09:30;;;;;;;49.33;21.92;;;7.50;99.90;;;;;;5090144;28;20039;-71
2022/04/17 02:11:56;;;;;;;51.60;21.83;;;7.50;99.90;;;;;;5074055;28;20373;-70
2022/04/17 02:14:22;;;;;;;50.38;23.10;;;7.60;99.90;;;;;;5072165;28;20497;-70
2022/04/17 02:16:48;;;;;;;50.38;23.00;;;7.60;99.90;;;;;;5073253;28;20040;-69
2022/04/17 02:19:14;;;;;;;45.67;22.25;;;7.60;99.90;;;;;;5073255;28;20036;-70
2022/04/17 02:21:39;;;;;;;42.13;21.85;;;7.60;99.90;;;;;;5094024;28;20047;-70
2022/04/17 02:24:06;;;;;;;46.55;22.17;;;7.60;99.90;;;;;;5093816;28;20031;-70
2022/04/17 02:26:32;;;;;;;45.67;21.65;;;7.60;99.90;;;;;;5078465;28;20031;-70
2022/04/17 02:29:01;;;;;;;49.67;22.25;;;7.50;99.90;;;;;;5076621;28;20377;-70
2022/04/17 02:31:27;;;;;;;51.30;24.02;;;7.40;99.90;;;;;;5095244;28;20020;-70
2022/04/17 02:33:53;;;;;;;46.55;22.13;;;7.40;99.90;;;;;;5097053;28;20016;-70
2022/04/17 02:36:20;;;;;;;46.13;21.98;;;7.20;99.90;;;;;;5096702;28;20069;-70
2022/04/17 02:38:46;;;;;;;43.42;21.08;;;7.20;99.90;;;;;;5096830;28;20107;-70
2022/04/17 02:41:11;;;;;;;45.20;20.95;;;7.20;99.90;;;;;;5082335;28;20115;-70
2022/04/17 02:43:37;;;;;;;46.13;22.00;;;7.20;99.90;;;;;;5073169;28;20025;-70
2022/04/17 02:46:03;;;;;;;41.63;19.95;;;7.30;99.90;;;;;;5073431;28;20029;-71
2022/04/17 02:48:28;;;;;;;42.40;21.42;;;7.30;99.90;;;;;;5073257;28;20041;-70
2022/04/17 02:50:55;;;;;;;44.40;20.48;;;7.30;99.90;;;;;;5086850;28;20029;-70
2022/04/17 02:53:21;;;;;;;43.95;20.88;;;7.30;99.90;;;;;;5093586;28;20030;-71
2022/04/17 02:55:47;;;;;;;47.10;21.27;;;7.30;99.90;;;;;;5083397;28;20503;-71
2022/04/17 02:58:14;;;;;;;46.25;20.90;;;7.20;99.90;;;;;;5073016;28;20033;-71
2022/04/17 03:06:10;;;;;;;41.20;20.23;;;7.00;99.90;;;;;;5093562;28;20051;-71
2022/04/17 03:08:39;;;;;;;45.95;21.33;;;6.90;99.90;;;;;;5093073;28;20028;-70
2022/04/17 03:11:05;;;;;;;46.40;22.05;;;6.80;99.90;;;;;;5081776;28;20048;-70
2022/04/17 03:13:31;;;;;;;43.70;20.33;;;6.80;99.90;;;;;;5072913;28;20078;-70
2022/04/17 03:15:56;;;;;;;51.75;23.15;;;6.80;99.90;;;;;;5072775;28;20142;-71
2022/04/17 03:18:22;;;;;;;47.75;23.17;;;6.70;99.90;;;;;;5073022;28;20114;-70
2022/04/17 03:20:48;;;;;;;48.53;22.15;;;6.70;99.90;;;;;;5085389;28;20024;-71
2022/04/17 03:23:14;;;;;;;51.50;23.40;;;6.70;99.90;;;;;;5093005;28;20435;-70
2022/04/17 03:25:40;;;;;;;51.38;24.15;;;6.70;99.90;;;;;;5086591;28;20077;-71
2022/04/17 03:28:06;;;;;;;56.10;25.45;;;6.60;99.90;;;;;;5072466;28;20043;-71
2022/04/17 03:30:32;;;;;;;64.93;26.23;;;6.50;99.90;;;;;;5083786;28;20441;-72
2022/04/17 03:32:59;;;;;;;62.55;25.35;;;6.50;99.90;;;;;;5093743;28;20088;-71
2022/04/17 03:35:26;;;;;;;64.40;27.65;;;6.50;99.90;;;;;;5091736;28;20388;-72
2022/04/17 03:37:53;;;;;;;59.63;26.15;;;6.50;99.90;;;;;;5092666;28;20493;-71
2022/04/17 03:40:19;;;;;;;59.38;25.65;;;6.50;99.90;;;;;;5090254;28;20028;-71
2022/04/17 03:42:45;;;;;;;52.15;25.33;;;6.40;99.90;;;;;;5072582;28;20027;-71
2022/04/17 03:45:12;;;;;;;53.45;23.65;;;6.40;99.90;;;;;;5072434;28;20069;-71
2022/04/17 03:47:38;;;;;;;55.92;24.25;;;6.40;99.90;;;;;;5071908;28;20041;-69
2022/04/17 03:50:05;;;;;;;60.20;26.38;;;6.30;99.90;;;;;;5078282;28;20024;-70
2022/04/17 03:52:40;;;;;;;61.08;26.58;;;6.30;99.90;;;;;;5092466;28;20490;-70
2022/04/17 03:55:07;;;;;;;64.22;27.63;;;6.20;99.90;;;;;;5091763;28;20481;-71
2022/04/17 03:57:33;;;;;;;57.08;26.02;;;6.30;99.90;;;;;;5072539;28;20060;-71
2022/04/17 03:59:59;;;;;;;64.13;27.30;;;6.30;99.90;;;;;;5075651;28;20027;-69
2022/04/17 04:02:25;;;;;;;57.15;25.33;;;6.20;99.90;;;;;;5091921;28;20560;-71
2022/04/17 04:04:51;;;;;;;57.25;26.38;;;6.20;99.90;;;;;;5092030;28;20119;-71
2022/04/17 04:07:16;;;;;;;65.90;26.85;;;6.20;99.90;;;;;;5091938;28;20546;-70
2022/04/17 04:09:42;;;;;;;63.42;26.50;;;6.20;99.90;;;;;;5092006;28;20036;-70
2022/04/17 04:12:08;;;;;;;58.67;27.35;;;6.20;99.90;;;;;;5076252;28;20063;-71
2022/04/17 04:14:33;;;;;;;63.70;26.38;;;6.20;99.90;;;;;;5070237;28;20712;-69
2022/04/17 04:16:59;;;;;;;59.50;25.83;;;6.20;99.90;;;;;;5069006;28;20404;-70
2022/04/17 04:19:25;;;;;;;61.83;26.50;;;6.10;99.90;;;;;;5068538;28;20048;-70
2022/04/17 04:21:51;;;;;;;57.85;26.02;;;6.10;99.90;;;;;;5090870;28;20067;-71
2022/04/17 04:24:19;;;;;;;65.88;26.98;;;6.10;99.90;;;;;;5091711;28;20020;-71
2022/04/17 04:29:30;;;;;;;58.38;26.15;;;6.20;99.90;;;;;;5072420;28;20032;-71
2022/04/17 04:31:55;;;;;;;58.17;25.45;;;6.30;99.90;;;;;;5088069;28;20032;-71
2022/04/17 04:34:21;;;;;;;54.45;25.98;;;6.30;99.90;;;;;;5088350;28;20016;-72
2022/04/17 04:36:47;;;;;;;56.97;25.27;;;6.30;99.90;;;;;;5089145;28;20111;-71
2022/04/17 04:39:12;;;;;;;56.30;25.80;;;6.30;99.90;;;;;;5088014;28;20048;-70
2022/04/17 04:41:38;;;;;;;54.95;24.42;;;6.30;99.90;;;;;;5078779;28;20025;-70
2022/04/17 04:44:04;;;;;;;51.97;25.13;;;6.20;99.90;;;;;;5068054;28;20036;-68
2022/04/17 04:46:29;;;;;;;56.08;25.15;;;6.20;99.90;;;;;;5066571;28;20032;-71
2022/04/17 04:51:39;;;;;;;57.30;23.15;;;6.20;99.90;;;;;;5089520;28;20077;-70
2022/04/17 04:54:07;;;;;;;48.90;22.10;;;6.20;99.90;;;;;;5091276;28;20379;-71
2022/04/17 04:56:34;;;;;;;53.65;22.35;;;6.20;99.90;;;;;;5083472;28;20377;-70
2022/04/17 04:59:00;;;;;;;48.88;23.20;;;6.10;99.90;;;;;;5070836;28;20029;-70
2022/04/17 05:01:25;;;;;;;45.38;21.50;;;6.10;99.90;;;;;;5085290;28;20024;-71
2022/04/17 05:03:51;;;;;;;44.83;22.15;;;6.10;99.90;;;;;;5086895;28;20175;-72
2022/04/17 05:06:17;;;;;;;47.40;21.23;;;6.00;99.90;;;;;;5087513;28;20453;-72
2022/04/17 05:08:43;;;;;;;50.63;21.65;;;6.00;99.90;;;;;;5087585;28;20039;-71
2022/04/17 05:11:09;;;;;;;40.10;19.05;;;6.00;99.90;;;;;;5083746;28;20020;-70
2022/04/17 05:13:35;;;;;;;44.63;20.00;;;6.00;99.90;;;;;;5067770;28;20032;-70
2022/04/17 05:16:02;;;;;;;41.88;19.25;;;6.00;99.90;;;;;;5067730;28;20480;-70
2022/04/17 05:18:27;;;;;;;43.58;20.38;;;6.00;99.90;;;;;;5067679;28;20099;-70
2022/04/17 05:20:55;;;;;;;42.20;20.55;;;6.10;99.90;;;;;;5079098;28;20024;-70
2022/04/17 05:23:25;;;;;;;36.67;17.65;;;6.10;99.90;;;;;;5087510;28;20132;-70
2022/04/17 05:25:53;;;;;;;44.53;20.90;;;6.20;99.90;;;;;;5086610;28;20047;-71
2022/04/17 05:28:19;;;;;;;41.10;18.35;;;6.20;99.90;;;;;;5067358;28;20043;-72
2022/04/17 05:30:46;;;;;;;33.30;16.10;;;6.30;99.90;;;;;;5077974;28;20091;-69
2022/04/17 05:33:12;;;;;;;31.88;16.15;;;6.30;99.90;;;;;;5087421;28;20039;-70
2022/04/17 05:35:38;;;;;;;35.15;16.95;;;6.40;99.90;;;;;;5087786;28;20500;-72
2022/04/17 05:38:05;;;;;;;34.10;16.30;;;6.40;99.90;;;;;;5087586;28;20081;-72
2022/04/17 05:40:42;;;;;;;30.25;15.82;;;6.50;99.90;;;;;;5087068;28;20024;-71
2022/04/17 05:43:08;;;;;;;31.50;16.48;;;6.60;99.90;;;;;;5069177;28;20033;-71
2022/04/17 05:45:35;;;;;;;32.05;15.93;;;6.70;99.90;;;;;;5067260;28;20036;-71
2022/04/17 05:48:01;;;;;;;32.90;15.95;;;6.80;99.90;;;;;;5067384;28;20499;-72
2022/04/17 05:50:28;;;;;;;35.67;17.88;;;6.80;99.90;;;;;;5074624;28;20032;-71
2022/04/17 05:52:54;;;;;;;37.08;17.75;;;6.80;99.90;;;;;;5087197;28;20032;-71
2022/04/17 05:55:20;;;;;;;33.08;15.98;;;6.90;99.90;;;;;;5086858;28;20024;-71
2022/04/17 05:57:46;;;;;;;33.30;15.20;;;7.00;99.90;;;;;;5073269;28;20032;-72
2022/04/17 06:00:12;;;;;;;29.30;15.57;;;7.00;99.90;;;;;;5072388;28;20030;-71
2022/04/17 06:02:38;;;;;;;26.55;13.43;;;7.10;99.90;;;;;;5087458;28;20025;-70
2022/04/17 06:05:05;;;;;;;27.65;13.90;;;7.20;99.90;;;;;;5087247;28;20540;-70
2022/04/17 06:07:32;;;;;;;29.88;14.88;;;7.20;99.90;;;;;;5086986;28;20024;-71
2022/04/17 06:10:06;;;;;;;24.08;12.43;;;7.40;99.90;;;;;;5074910;28;20110;-71
2022/04/17 06:12:32;;;;;;;24.48;12.98;;;7.40;99.90;;;;;;5076406;28;20146;-71
2022/04/17 06:14:58;;;;;;;24.90;13.02;;;7.60;99.90;;;;;;5065943;28;20039;-70
2022/04/17 06:17:24;;;;;;;26.77;12.93;;;7.70;99.90;;;;;;5066724;28;20056;-69
2022/04/17 06:19:50;;;;;;;26.00;13.30;;;7.80;99.90;;;;;;5072426;28;20016;-70
2022/04/17 06:22:17;;;;;;;25.65;12.50;;;7.90;99.90;;;;;;5090955;28;20050;-71
2022/04/17 06:24:43;;;;;;;21.52;12.20;;;7.90;99.90;;;;;;5091030;28;20030;-70
2022/04/17 06:27:09;;;;;;;24.05;13.38;;;8.10;99.90;;;;;;5083933;28;20036;-70
2022/04/17 06:29:35;;;;;;;23.23;12.20;;;8.30;99.90;;;;;;5070598;28;20531;-69
2022/04/17 06:32:01;;;;;;;22.15;12.50;;;8.40;99.90;;;;;;5090461;28;20473;-70
2022/04/17 06:34:26;;;;;;;26.17;12.05;;;8.50;99.90;;;;;;5079937;28;20036;-69
2022/04/17 06:36:52;;;;;;;21.65;11.98;;;8.60;99.90;;;;;;5073630;28;20024;-70
2022/04/17 06:39:18;;;;;;;24.08;13.13;;;8.70;99.90;;;;;;5089302;28;20028;-69
2022/04/17 06:41:45;;;;;;;18.80;11.32;;;8.70;99.90;;;;;;5074599;28;20024;-70
2022/04/17 06:44:14;;;;;;;192.32;81.63;;;8.90;99.90;;;;;;5093528;28;20020;-71
2022/04/17 06:46:39;;;;;;;40.10;22.83;;;9.00;99.90;;;;;;5093397;28;20028;-68
2022/04/17 06:49:08;;;;;;;28.48;11.93;;;9.30;99.90;;;;;;5093450;28;20043;-70
2022/04/17 06:51:34;;;;;;;19.85;10.70;;;9.60;99.90;;;;;;5081701;28;20028;-69
2022/04/17 06:53:59;;;;;;;20.63;10.90;;;9.80;99.90;;;;;;5073367;28;20369;-69
2022/04/17 06:56:25;;;;;;;18.85;10.55;;;9.90;99.90;;;;;;5073235;28;20486;-68
2022/04/17 06:58:51;;;;;;;16.75;10.52;;;9.90;99.90;;;;;;5073706;28;20610;-71
2022/04/17 07:01:17;;;;;;;18.00;10.23;;;10.00;99.90;;;;;;5085249;28;20064;-70
2022/04/17 07:03:47;;;;;;;17.05;9.23;;;10.10;99.90;;;;;;5089132;28;20024;-70
2022/04/17 07:06:13;;;;;;;15.48;9.18;;;10.40;99.90;;;;;;5090374;28;20032;-70
2022/04/17 07:08:39;;;;;;;16.83;10.23;;;10.70;99.90;;;;;;5092039;28;20039;-70
2022/04/17 07:11:05;;;;;;;13.77;8.77;;;10.90;99.90;;;;;;5093249;28;20016;-70
2022/04/17 07:13:31;;;;;;;15.20;9.38;;;10.90;99.90;;;;;;5077646;28;20028;-70
2022/04/17 07:15:57;;;;;;;12.65;7.97;;;11.20;99.90;;;;;;5072580;28;20025;-69
2022/04/17 07:18:23;;;;;;;13.25;8.88;;;11.40;99.90;;;;;;5072902;28;20028;-69
2022/04/17 07:20:50;;;;;;;13.15;6.88;;;11.70;99.90;;;;;;5082269;28;20051;-69
2022/04/17 07:23:15;;;;;;;10.63;7.22;;;11.90;99.90;;;;;;5093268;28;20469;-69
2022/04/17 07:25:44;;;;;;;9.82;6.82;;;12.10;99.90;;;;;;5093087;28;20490;-69
2022/04/17 07:28:14;;;;;;;14.15;7.43;;;12.20;99.90;;;;;;5081188;28;20504;-68
2022/04/17 07:30:40;;;;;;;11.13;6.82;;;12.30;99.90;;;;;;5080365;28;20027;-69
2022/04/17 07:33:06;;;;;;;12.65;7.03;;;12.40;99.90;;;;;;5093023;28;20082;-68
2022/04/17 07:35:32;;;;;;;9.63;6.22;;;12.50;99.90;;;;;;5093461;28;20024;-70
2022/04/17 07:38:00;;;;;;;9.10;5.85;;;12.60;99.90;;;;;;5092858;28;20468;-70
2022/04/17 07:40:33;;;;;;;8.00;5.82;;;12.70;99.90;;;;;;5092730;28;20027;-69
2022/04/17 07:43:01;;;;;;;9.38;6.28;;;12.70;99.90;;;;;;5083196;28;20025;-69
2022/04/17 07:45:28;;;;;;;9.73;5.97;;;12.80;99.90;;;;;;5072479;28;20017;-69
2022/04/17 07:47:53;;;;;;;13.45;6.28;;;12.80;99.90;;;;;;5070501;28;20378;-71
2022/04/17 07:50:27;;;;;;;9.60;6.13;;;12.90;99.90;;;;;;5077073;28;20027;-69
2022/04/17 07:52:54;;;;;;;9.60;6.25;;;13.00;99.90;;;;;;5092333;28;20068;-69
2022/04/17 07:55:20;;;;;;;8.48;5.43;;;13.00;99.90;;;;;;5092122;28;20020;-69
2022/04/17 07:57:57;;;;;;;8.68;5.10;;;13.10;99.70;;;;;;5085636;28;20534;-70
2022/04/17 08:00:24;;;;;;;10.98;5.05;;;13.20;99.90;;;;;;5077353;28;20023;-70
2022/04/17 08:03:06;;;;;;;7.65;4.63;;;13.20;97.80;;;;;;5092249;28;20573;-69
2022/04/17 08:05:35;;;;;;;7.00;5.07;;;13.30;96.70;;;;;;5092372;28;20059;-70
2022/04/17 08:08:01;;;;;;;6.75;4.82;;;13.40;96.30;;;;;;5092055;28;20036;-69
2022/04/17 08:10:26;;;;;;;8.98;4.95;;;13.50;94.90;;;;;;5084261;28;20162;-69
2022/04/17 08:12:52;;;;;;;10.02;4.60;;;13.50;92.40;;;;;;5072672;28;20062;-71
2022/04/17 08:15:18;;;;;;;7.00;4.57;;;13.60;93.30;;;;;;5071835;28;20058;-69
2022/04/17 08:17:44;;;;;;;6.90;4.47;;;13.70;91.70;;;;;;5071264;28;20048;-70
2022/04/17 08:20:10;;;;;;;7.60;4.50;;;13.70;91.30;;;;;;5074671;28;20445;-70
2022/04/17 08:22:36;;;;;;;7.30;4.63;;;13.80;90.70;;;;;;5091569;28;20016;-70
2022/04/17 08:25:02;;;;;;;6.50;4.15;;;13.80;90.70;;;;;;5091565;28;20521;-70
2022/04/17 08:27:27;;;;;;;6.43;4.18;;;13.90;90.70;;;;;;5088775;28;20044;-72
2022/04/17 08:29:53;;;;;;;6.25;3.83;;;14.00;85.60;;;;;;5070895;28;20024;-69
2022/04/17 08:32:19;;;;;;;6.72;3.60;;;14.10;83.90;;;;;;5091579;28;20493;-70
2022/04/17 08:34:45;;;;;;;7.53;4.03;;;14.10;80.80;;;;;;5091315;28;20089;-69
2022/04/17 08:37:11;;;;;;;8.18;3.75;;;14.20;78.60;;;;;;5090975;28;20578;-69
2022/04/17 08:39:36;;;;;;;7.10;3.58;;;14.30;79.70;;;;;;5091209;28;20534;-70
2022/04/17 08:42:04;;;;;;;8.45;3.67;;;14.30;73.50;;;;;;5090109;28;20052;-69
2022/04/17 08:44:30;;;;;;;5.78;2.92;;;14.30;74.20;;;;;;5072291;28;20044;-69
2022/04/17 08:46:56;;;;;;;4.60;3.35;;;14.40;70.00;;;;;;5071067;28;20068;-69
2022/04/17 08:49:24;;;;;;;5.30;3.42;;;14.40;71.20;;;;;;5071329;28;20032;-70
2022/04/17 08:51:53;;;;;;;4.25;3.22;;;14.40;70.90;;;;;;5087550;28;20091;-70
2022/04/17 08:54:20;;;;;;;4.55;3.22;;;14.50;65.90;;;;;;5091366;28;20028;-69
2022/04/17 08:56:45;;;;;;;6.88;3.40;;;14.60;66.30;;;;;;5091216;28;20024;-69
2022/04/17 08:59:11;;;;;;;7.18;3.10;;;14.70;67.90;;;;;;5075239;28;20526;-70
2022/04/17 09:01:37;;;;;;;4.20;3.05;;;14.70;58.30;;;;;;5085913;28;20467;-69
2022/04/17 09:04:06;;;;;;;6.63;3.03;;;14.80;57.10;;;;;;5091434;28;20465;-69
2022/04/17 09:06:34;;;;;;;4.70;2.58;;;14.80;59.60;;;;;;5091279;28;20028;-69
2022/04/17 09:09:05;;;;;;;3.13;2.50;;;14.80;55.50;;;;;;5089719;28;20047;-68
2022/04/17 09:11:34;;;;;;;6.35;2.70;;;14.90;55.50;;;;;;5090908;28;20016;-71
2022/04/17 09:14:01;;;;;;;4.85;2.92;;;15.00;55.50;;;;;;5079017;28;20037;-70
2022/04/17 09:16:34;;;;;;;3.67;2.42;;;15.00;54.40;;;;;;5069514;28;20257;-69
2022/04/17 09:19:13;;;;;;;3.85;3.00;;;15.20;53.50;;;;;;5070865;28;20032;-69
2022/04/17 09:21:39;;;;;;;3.58;2.70;;;15.20;52.80;;;;;;5085571;28;20031;-68
2022/04/17 09:24:24;;;;;;;4.03;2.70;;;15.20;54.00;;;;;;5090915;28;20020;-70
2022/04/17 09:26:55;;;;;;;4.75;2.85;;;15.20;50.90;;;;;;5090749;28;20036;-69
2022/04/17 09:29:31;;;;;;;5.97;2.50;;;15.20;51.30;;;;;;5076682;28;20358;-69
2022/04/17 09:32:03;;;;;;;4.80;2.90;;;15.30;50.10;;;;;;5087614;28;20030;-68
2022/04/17 09:34:44;;;;;;;5.82;2.65;;;15.40;50.50;;;;;;5090335;28;20031;-70
2022/04/17 09:37:20;;;;;;;3.10;2.42;;;15.50;49.00;;;;;;5090477;28;20036;-70
2022/04/17 09:39:47;;;;;;;5.63;2.30;;;15.50;47.20;;;;;;5090459;28;20034;-70
2022/04/17 09:42:20;;;;;;;4.25;2.47;;;15.60;48.70;;;;;;5090116;28;20024;-68
2022/04/17 09:44:46;;;;;;;;;;;15.70;46.80;;;;;;5074654;28;20023;-70
2022/04/17 09:47:16;;;;;;;4.18;2.70;;;15.80;46.50;;;;;;5070116;28;19919;-69
2022/04/17 09:49:56;;;;;;;3.47;2.63;;;15.90;46.10;;;;;;5068813;28;20622;-70
2022/04/17 09:52:27;;;;;;;3.75;2.58;;;16.00;44.30;;;;;;5071545;28;20065;-70
2022/04/17 09:54:53;;;;;;;6.15;3.20;;;16.20;44.50;;;;;;5072693;28;20032;-70
2022/04/17 09:57:26;;;;;;;3.60;2.35;;;16.40;42.40;;;;;;5074166;28;20582;-70
2022/04/17 09:59:53;;;;;;;4.10;2.90;;;16.40;38.80;;;;;;5074780;28;20163;-70
2022/04/17 10:02:20;;;;;;;5.03;2.72;;;16.30;40.10;;;;;;5094260;28;20039;-70
2022/04/17 10:04:46;;;;;;;3.92;2.85;;;16.30;41.70;;;;;;5094456;28;20028;-70
2022/04/17 10:07:12;;;;;;;4.80;3.00;;;16.40;42.30;;;;;;5094300;28;20046;-71
2022/04/17 10:09:38;;;;;;;4.63;3.10;;;16.50;40.50;;;;;;5092484;28;20429;-70
2022/04/17 10:12:05;;;;;;;4.45;3.05;;;16.50;37.00;;;;;;5093138;28;20027;-70
2022/04/17 10:14:32;;;;;;;4.68;2.90;;;16.50;41.40;;;;;;5088611;28;20377;-70
2022/04/17 10:16:58;;;;;;;5.00;3.55;;;16.60;40.60;;;;;;5073941;28;20112;-69
2022/04/17 10:19:25;;;;;;;5.35;3.15;;;16.60;38.70;;;;;;5073776;28;20032;-69
2022/04/17 10:21:52;;;;;;;4.18;3.20;;;16.50;38.70;;;;;;5090242;28;20024;-69
2022/04/17 10:24:19;;;;;;;5.90;3.45;;;16.50;38.80;;;;;;5093974;28;20114;-69
2022/04/17 10:26:47;;;;;;;5.25;3.15;;;16.40;38.80;;;;;;5094127;28;20027;-68
2022/04/17 10:29:28;;;;;;;6.68;3.40;;;16.50;38.10;;;;;;5084789;28;20517;-70
2022/04/17 10:32:24;;;;;;;4.82;3.20;;;16.70;40.20;;;;;;5089783;28;20028;-70
2022/04/17 10:35:02;;;;;;;4.72;3.30;;;16.80;37.00;;;;;;5093843;28;20468;-70
2022/04/17 10:38:16;;;;;;;4.95;3.15;;;16.80;38.60;;;;;;5093839;28;20035;-71
2022/04/17 10:40:59;;;;;;;5.35;3.10;;;16.90;40.60;;;;;;5093757;28;20020;-70
2022/04/17 10:43:43;;;;;;;6.57;3.33;;;17.00;40.00;;;;;;5091938;28;20103;-71
2022/04/17 10:46:09;;;;;;;6.00;4.05;;;17.00;38.40;;;;;;5073520;28;20404;-70
2022/04/17 10:48:45;;;;;;;4.13;3.00;;;17.10;37.30;;;;;;5072916;28;20033;-70
2022/04/17 10:51:27;;;;;;;5.07;3.72;;;17.10;40.70;;;;;;5078894;28;20412;-70
2022/04/17 10:54:03;;;;;;;5.00;3.50;;;17.20;41.20;;;;;;5092774;28;20448;-70
2022/04/17 10:56:32;;;;;;;5.55;2.97;;;17.30;41.60;;;;;;5092922;28;20023;-70
2022/04/17 10:59:00;;;;;;;4.63;3.17;;;17.50;41.70;;;;;;5079877;28;20041;-70
2022/04/17 11:01:41;;;;;;;4.80;3.60;;;17.70;44.80;;;;;;5077044;28;20019;-70
2022/04/17 11:04:24;;;;;;;6.68;3.55;;;17.80;40.50;;;;;;5077198;28;20213;-70
2022/04/17 11:07:06;;;;;;;8.80;3.78;;;17.90;42.30;;;;;;5086650;28;20111;-69
2022/04/17 11:09:42;;;;;;;6.00;3.42;;;17.90;40.60;;;;;;5086146;28;20225;-69
2022/04/17 11:12:10;;;;;;;6.53;4.10;;;17.60;34.80;;;;;;5083448;28;20149;-68
2022/04/17 11:14:38;;;;;;;5.05;4.00;;;17.30;37.30;;;;;;5083533;28;20020;-68
2022/04/17 11:17:08;;;;;;;4.18;3.35;;;17.30;37.00;;;;;;5084257;28;20063;-68
2022/04/17 11:19:39;;;;;;;6.35;3.85;;;17.50;43.40;;;;;;5081959;28;20428;-69
2022/04/17 11:22:07;;;;;;;6.20;3.50;;;17.90;38.60;;;;;;5081751;28;20082;-69
2022/04/17 11:24:54;;;;;;;6.45;3.90;;;18.10;41.10;;;;;;5080785;28;20043;-70
2022/04/17 11:27:52;;;;;;;6.20;3.33;;;18.30;41.10;;;;;;5081032;28;20166;-69
2022/04/17 11:30:17;;;;;;;6.88;4.00;;;18.50;39.40;;;;;;5078838;28;20089;-70
2022/04/17 11:32:43;;;;;;;6.72;3.95;;;18.60;43.10;;;;;;5080345;28;20031;-71
2022/04/17 11:35:11;;;;;;;5.10;3.97;;;18.60;42.00;;;;;;5082269;28;20028;-69
2022/04/17 11:37:37;;;;;;;9.30;4.07;;;18.80;42.80;;;;;;5092557;28;20035;-70
2022/04/17 11:40:11;;;;;;;6.28;3.80;;;18.90;44.70;;;;;;5092843;28;20095;-69
2022/04/17 11:42:45;;;;;;;6.85;3.97;;;18.90;42.10;;;;;;5072367;28;20029;-70
2022/04/17 11:45:16;;;;;;;6.57;4.07;;;19.00;42.10;;;;;;5075239;28;20613;-70
2022/04/17 11:47:44;;;;;;;4.68;3.80;;;19.10;43.80;;;;;;5068813;28;20111;-71
2022/04/17 11:50:11;;;;;;;7.63;4.07;;;19.40;42.30;;;;;;5069312;28;20103;-70
2022/04/17 11:52:38;;;;;;;5.15;4.13;;;19.50;42.70;;;;;;5089293;28;20020;-70
2022/04/17 11:55:07;;;;;;;8.52;4.07;;;19.60;40.80;;;;;;5089088;28;20023;-69
2022/04/17 11:57:33;;;;;;;5.93;3.92;;;19.80;42.20;;;;;;5070760;28;20024;-68
2022/04/17 12:00:00;;;;;;;8.25;4.22;;;20.10;39.50;;;;;;5069214;28;20082;-70
2022/04/17 12:02:28;;;;;;;6.80;4.10;;;20.40;41.20;;;;;;5081882;28;20020;-69
2022/04/17 12:05:08;;;;;;;6.07;4.05;;;20.90;39.40;;;;;;5068762;28;20153;-71
2022/04/17 12:07:34;;;;;;;4.82;3.72;;;21.30;40.70;;;;;;5068969;28;20067;-69
2022/04/17 12:10:03;;;;;;;5.68;4.10;;;21.60;36.40;;;;;;5068788;28;20393;-72
2022/04/17 12:12:34;;;;;;;7.68;4.15;;;21.90;36.50;;;;;;5071127;28;20025;-70
2022/04/17 12:15:03;;;;;;;7.23;5.30;;;22.10;36.70;;;;;;5067692;28;20553;-69
2022/04/17 12:17:31;;;;;;;6.55;4.43;;;22.10;36.70;;;;;;5069527;28;20118;-70
2022/04/17 12:19:57;;;;;;;6.22;3.80;;;22.20;36.20;;;;;;5068561;28;20027;-70
2022/04/17 12:22:24;;;;;;;6.00;3.83;;;22.40;35.80;;;;;;5086931;28;20028;-69
2022/04/17 12:24:50;;;;;;;4.43;3.72;;;22.60;31.10;;;;;;5091192;28;20473;-70
2022/04/17 12:27:19;;;;;;;4.47;3.45;;;22.70;32.90;;;;;;5088343;28;20028;-70
2022/04/17 12:29:47;;;;;;;7.35;3.60;;;23.10;29.80;;;;;;5094531;28;20020;-71
2022/04/17 12:32:26;;;;;;;6.03;3.40;;;23.20;29.60;;;;;;5087939;28;20070;-70
2022/04/17 12:34:59;;;;;;;4.57;3.53;;;23.10;31.40;;;;;;5090283;28;20431;-70
2022/04/17 12:37:28;;;;;;;4.75;3.80;;;23.20;31.00;;;;;;5090778;28;20024;-70
2022/04/17 12:40:06;;;;;;;4.05;3.50;;;23.40;30.90;;;;;;5091487;28;20042;-70
2022/04/17 12:42:32;;;;;;;4.95;3.65;;;23.70;33.20;;;;;;5090082;28;20042;-70
2022/04/17 12:44:57;;;;;;;3.90;2.90;;;23.90;29.80;;;;;;5085231;28;20051;-69
2022/04/17 12:47:23;;;;;;;3.42;2.85;;;24.00;31.40;;;;;;5069858;28;20067;-69
2022/04/17 12:49:48;;;;;;;3.63;3.17;;;24.30;27.90;;;;;;5071300;28;20033;-70
2022/04/17 12:52:21;;;;;;;4.45;2.85;;;24.40;27.70;;;;;;5088254;28;20043;-70
2022/04/17 12:54:48;;;;;;;3.88;3.15;;;24.60;27.60;;;;;;5091165;28;20020;-70
2022/04/17 12:57:20;;;;;;;3.83;2.95;;;24.60;26.60;;;;;;5089820;28;20032;-69
2022/04/17 12:59:50;;;;;;;;;;;24.50;28.70;;;;;;5088689;28;20036;-69